Time;durP1;ratioP1;P1;durP2;ratioP2;P2;SDS_P1;SDS_P2;PMS_P1;PMS_P2;Temp;Humidity;BMP_temperature;BMP_pressure;BME280_temperature;BME280_humidity;BME280_pressure;Samples;Min_cycle;Max_cycle;Signal;HPM_P1;HPM_P2
2024/03/07 00:02:17;;;;;;;;;18.75;18.75;;;;;;;;5089159;28;11600;-88
2024/03/07 00:04:44;;;;;;;;;15.50;15.50;;;;;;;;5082036;28;11532;-85
2024/03/07 00:07:12;;;;;;;;;18.75;15.75;;;;;;;;5071074;28;11521;-84
2024/03/07 00:09:40;;;;;;;;;18.00;15.00;;;;;;;;5066461;28;11550;-85
2024/03/07 00:12:17;;;;;;;;;23.75;21.25;;;;;;;;5069782;28;11518;-84
2024/03/07 00:14:45;;;;;;;;;23.50;19.25;;;;;;;;5069061;28;11539;-89
2024/03/07 00:17:13;;;;;;;;;23.00;23.00;;;;;;;;5067991;28;11545;-84
2024/03/07 00:19:40;;;;;;;;;16.75;16.75;;;;;;;;5070563;28;11546;-84
2024/03/07 00:22:09;;;;;;;;;20.25;20.25;;;;;;;;5070684;28;11607;-83
2024/03/07 00:24:40;;;;;;;;;19.75;19.00;;;;;;;;5058248;28;11556;-85
2024/03/07 00:27:09;;;;;;;;;13.75;11.00;;;;;;;;5057875;28;11553;-85
2024/03/07 00:29:37;;;;;;;;;20.25;17.25;;;;;;;;5070812;28;11521;-89
2024/03/07 00:32:05;;;;;;;;;18.25;17.25;;;;;;;;5053582;28;11480;-85
2024/03/07 00:34:32;;;;;;;;;16.75;15.00;;;;;;;;5072994;28;11575;-86
2024/03/07 00:37:00;;;;;;;;;21.75;18.75;;;;;;;;5073830;28;11610;-85
2024/03/07 00:39:27;;;;;;;;;16.75;16.75;;;;;;;;5073226;28;11532;-94
2024/03/07 00:41:55;;;;;;;;;22.00;21.25;;;;;;;;5054073;28;11615;-86
2024/03/07 00:44:23;;;;;;;;;19.00;19.00;;;;;;;;5052836;28;11558;-86
2024/03/07 00:46:52;;;;;;;;;20.00;20.00;;;;;;;;5071807;28;12418;-86
2024/03/07 00:49:20;;;;;;;;;20.50;17.50;;;;;;;;5070931;28;11527;-91
2024/03/07 00:51:47;;;;;;;;;13.00;13.00;;;;;;;;5070152;28;11609;-92
2024/03/07 00:54:14;;;;;;;;;19.75;19.75;;;;;;;;5071883;28;11691;-89
2024/03/07 00:56:42;;;;;;;;;16.00;14.75;;;;;;;;5074902;28;11668;-86
2024/03/07 00:59:10;;;;;;;;;19.25;16.75;;;;;;;;5076120;28;11602;-87
2024/03/07 01:01:41;;;;;;;;;16.75;14.75;;;;;;;;5080534;28;11477;-90
2024/03/07 01:04:09;;;;;;;;;17.25;15.25;;;;;;;;5064215;28;11579;-86
2024/03/07 01:06:37;;;;;;;;;17.50;14.50;;;;;;;;5070451;28;11534;-91
2024/03/07 01:09:13;;;;;;;;;16.75;15.75;;;;;;;;5072087;28;11550;-92
2024/03/07 01:11:41;;;;;;;;;17.25;17.25;;;;;;;;5060351;28;11541;-90
2024/03/07 01:14:15;;;;;;;;;17.75;17.75;;;;;;;;5056865;28;11713;-88
2024/03/07 01:16:43;;;;;;;;;17.25;15.50;;;;;;;;5041818;28;11593;-85
2024/03/07 01:19:10;;;;;;;;;22.00;17.25;;;;;;;;5068372;28;12330;-85
2024/03/07 01:21:38;;;;;;;;;20.25;20.25;;;;;;;;5069199;28;11571;-83
2024/03/07 01:24:09;;;;;;;;;21.25;18.00;;;;;;;;5069737;28;11519;-89
2024/03/07 01:26:39;;;;;;;;;17.50;14.00;;;;;;;;5069463;28;11515;-86
2024/03/07 01:29:07;;;;;;;;;21.75;17.75;;;;;;;;5067350;28;11589;-86
2024/03/07 01:31:34;;;;;;;;;18.50;16.00;;;;;;;;5070013;28;11477;-85
2024/03/07 01:34:03;;;;;;;;;22.00;18.25;;;;;;;;5067797;28;11535;-85
2024/03/07 01:36:30;;;;;;;;;16.00;16.00;;;;;;;;5073125;28;11532;-84
2024/03/07 01:38:58;;;;;;;;;19.50;19.50;;;;;;;;5072983;28;11543;-90
2024/03/07 01:41:25;;;;;;;;;20.25;15.50;;;;;;;;5072390;28;11663;-83
2024/03/07 01:43:52;;;;;;;;;18.00;18.00;;;;;;;;5072203;28;11608;-88
2024/03/07 01:46:20;;;;;;;;;21.25;20.00;;;;;;;;5074374;28;11534;-86
2024/03/07 01:48:48;;;;;;;;;21.50;20.00;;;;;;;;5074945;28;11516;-86
2024/03/07 01:51:17;;;;;;;;;21.75;20.00;;;;;;;;5075072;28;11597;-89
2024/03/07 01:53:45;;;;;;;;;22.50;21.75;;;;;;;;5069816;28;11548;-90
2024/03/07 01:56:12;;;;;;;;;21.00;20.00;;;;;;;;5070150;28;11539;-91
2024/03/07 01:58:40;;;;;;;;;24.00;21.25;;;;;;;;5069022;28;11515;-90
2024/03/07 02:01:08;;;;;;;;;19.50;17.00;;;;;;;;5069529;28;11478;-85
2024/03/07 02:03:43;;;;;;;;;28.25;23.50;;;;;;;;5068321;28;11692;-87
2024/03/07 02:06:11;;;;;;;;;23.00;23.00;;;;;;;;5069434;28;11547;-88
2024/03/07 02:08:40;;;;;;;;;28.50;27.25;;;;;;;;5066935;28;11548;-87
2024/03/07 02:11:12;;;;;;;;;17.75;17.75;;;;;;;;5069453;28;11517;-85
2024/03/07 02:13:39;;;;;;;;;36.00;32.75;;;;;;;;5067125;28;11568;-83
2024/03/07 02:16:07;;;;;;;;;39.00;34.67;;;;;;;;5068878;28;12308;-84
2024/03/07 02:18:35;;;;;;;;;36.00;32.33;;;;;;;;5065919;28;11526;-89
2024/03/07 02:21:08;;;;;;;;;34.75;34.75;;;;;;;;5062380;28;11686;-84
2024/03/07 02:23:35;;;;;;;;;32.00;29.50;;;;;;;;5068861;28;11589;-83
2024/03/07 02:26:04;;;;;;;;;30.75;30.75;;;;;;;;5069862;28;11676;-85
2024/03/07 02:28:31;;;;;;;;;41.33;35.33;;;;;;;;5071054;28;11536;-84
2024/03/07 02:30:59;;;;;;;;;39.75;32.00;;;;;;;;5067256;28;11583;-87
2024/03/07 02:33:26;;;;;;;;;39.25;32.50;;;;;;;;5065209;28;11659;-87
2024/03/07 02:35:54;;;;;;;;;38.50;38.50;;;;;;;;5071143;28;11659;-88
2024/03/07 02:38:25;;;;;;;;;23.33;18.33;;;;;;;;5072695;28;12337;-86
2024/03/07 02:40:52;;;;;;;;;45.33;38.67;;;;;;;;5084173;28;11491;-91
2024/03/07 02:43:20;;;;;;;;;36.33;34.67;;;;;;;;5091577;28;11614;-89
2024/03/07 02:45:47;;;;;;;;;33.50;33.00;;;;;;;;5075925;28;11592;-91
2024/03/07 02:48:14;;;;;;;;;40.25;36.00;;;;;;;;5075444;28;11635;-86
2024/03/07 02:50:42;;;;;;;;;31.75;30.00;;;;;;;;5078741;28;11549;-85
2024/03/07 02:53:12;;;;;;;;;25.25;23.50;;;;;;;;5082000;28;11588;-91
2024/03/07 02:55:41;;;;;;;;;27.50;25.50;;;;;;;;5074468;28;11586;-85
2024/03/07 02:58:14;;;;;;;;;28.75;27.25;;;;;;;;5078897;28;11562;-83
2024/03/07 03:00:42;;;;;;;;;25.00;23.33;;;;;;;;5078259;28;11482;-84
2024/03/07 03:03:09;;;;;;;;;28.00;25.25;;;;;;;;5079265;28;11557;-84
2024/03/07 03:05:36;;;;;;;;;26.00;24.00;;;;;;;;5074551;28;11603;-85
2024/03/07 03:08:06;;;;;;;;;30.50;27.00;;;;;;;;5077554;28;11665;-85
2024/03/07 03:10:36;;;;;;;;;33.67;31.67;;;;;;;;5072229;28;11538;-85
2024/03/07 03:13:06;;;;;;;;;34.67;29.00;;;;;;;;5077725;28;11534;-84
2024/03/07 03:15:34;;;;;;;;;28.25;27.25;;;;;;;;5074932;28;11553;-84
2024/03/07 03:18:03;;;;;;;;;31.67;30.67;;;;;;;;5058586;28;11559;-84
2024/03/07 03:20:34;;;;;;;;;31.67;31.67;;;;;;;;5077530;28;11556;-86
2024/03/07 03:23:02;;;;;;;;;32.50;27.75;;;;;;;;5077045;28;11565;-84
2024/03/07 03:25:34;;;;;;;;;28.75;27.00;;;;;;;;5059794;28;11548;-85
2024/03/07 03:28:03;;;;;;;;;31.75;29.75;;;;;;;;5077523;28;11564;-84
2024/03/07 03:30:32;;;;;;;;;23.00;23.00;;;;;;;;5067572;28;11482;-84
2024/03/07 03:33:00;;;;;;;;;30.25;29.75;;;;;;;;5079957;28;11555;-85
2024/03/07 03:35:31;;;;;;;;;25.25;23.00;;;;;;;;5081810;28;11553;-84
2024/03/07 03:37:59;;;;;;;;;33.75;29.00;;;;;;;;5078874;28;11513;-90
2024/03/07 03:40:26;;;;;;;;;24.50;21.75;;;;;;;;5071726;28;11573;-87
2024/03/07 03:42:53;;;;;;;;;32.75;29.00;;;;;;;;5070407;28;11673;-86
2024/03/07 03:45:21;;;;;;;;;32.75;23.75;;;;;;;;5071250;28;11551;-85
2024/03/07 03:47:53;;;;;;;;;20.00;20.00;;;;;;;;5070606;28;11543;-89
2024/03/07 03:50:20;;;;;;;;;27.25;26.25;;;;;;;;5071345;28;11539;-93
2024/03/07 03:52:47;;;;;;;;;37.00;32.75;;;;;;;;5072506;28;11651;-92
2024/03/07 03:55:15;;;;;;;;;27.75;24.50;;;;;;;;5078431;28;11555;-90
2024/03/07 03:57:44;;;;;;;;;27.50;24.00;;;;;;;;5079044;28;11577;-87
2024/03/07 04:00:13;;;;;;;;;23.75;21.25;;;;;;;;5069491;28;11658;-86
2024/03/07 04:02:41;;;;;;;;;23.25;20.75;;;;;;;;5071953;28;11584;-86
2024/03/07 04:05:13;;;;;;;;;21.50;16.50;;;;;;;;5072758;28;11549;-92
2024/03/07 04:07:41;;;;;;;;;21.50;21.50;;;;;;;;5062916;28;11516;-93
2024/03/07 04:10:10;;;;;;;;;23.25;19.00;;;;;;;;5074670;28;11516;-87
2024/03/07 04:12:38;;;;;;;;;21.00;18.50;;;;;;;;5072469;28;11521;-92
2024/03/07 04:15:07;;;;;;;;;18.00;17.75;;;;;;;;5069778;28;11599;-88
2024/03/07 04:17:34;;;;;;;;;22.25;18.25;;;;;;;;5070843;28;11539;-94
2024/03/07 04:20:02;;;;;;;;;15.50;15.50;;;;;;;;5070097;28;12256;-89
2024/03/07 04:22:42;;;;;;;;;18.25;18.25;;;;;;;;5070970;28;11520;-86
2024/03/07 04:25:10;;;;;;;;;17.00;15.00;;;;;;;;5069793;28;11677;-86
2024/03/07 04:27:39;;;;;;;;;20.00;18.50;;;;;;;;5053410;28;11541;-85
2024/03/07 04:30:09;;;;;;;;;23.50;20.50;;;;;;;;5069902;28;11552;-85
2024/03/07 04:32:37;;;;;;;;;22.25;20.00;;;;;;;;5069792;28;11700;-88
2024/03/07 04:35:07;;;;;;;;;9.75;8.50;;;;;;;;5070611;28;11535;-87
2024/03/07 04:37:37;;;;;;;;;21.50;21.50;;;;;;;;5074632;28;11660;-86
2024/03/07 04:40:11;;;;;;;;;27.50;25.00;;;;;;;;5075741;28;11567;-86
2024/03/07 04:42:50;;;;;;;;;19.75;19.75;;;;;;;;5074804;28;11571;-85
2024/03/07 04:45:18;;;;;;;;;19.75;18.75;;;;;;;;5076724;28;11565;-86
2024/03/07 04:47:47;;;;;;;;;20.75;18.25;;;;;;;;5076199;28;11578;-85
2024/03/07 04:50:17;;;;;;;;;21.50;19.50;;;;;;;;5072092;28;11575;-85
2024/03/07 04:52:59;;;;;;;;;20.75;20.75;;;;;;;;5084578;28;11558;-85
2024/03/07 04:55:37;;;;;;;;;28.00;22.00;;;;;;;;5088075;28;11580;-86
2024/03/07 04:58:20;;;;;;;;;24.50;22.50;;;;;;;;5087257;28;11559;-84
2024/03/07 05:00:50;;;;;;;;;17.75;16.00;;;;;;;;5071775;28;11494;-87
2024/03/07 05:03:17;;;;;;;;;17.50;15.25;;;;;;;;5072769;28;11569;-86
2024/03/07 05:05:44;;;;;;;;;22.50;19.25;;;;;;;;5079749;28;11550;-84
2024/03/07 05:08:13;;;;;;;;;20.50;20.25;;;;;;;;5072519;28;11576;-86
2024/03/07 05:10:41;;;;;;;;;22.25;18.25;;;;;;;;5073050;28;11556;-87
2024/03/07 05:13:09;;;;;;;;;23.00;23.00;;;;;;;;5074163;28;11672;-86
2024/03/07 05:15:39;;;;;;;;;23.75;22.25;;;;;;;;5074104;28;11584;-84
2024/03/07 05:18:09;;;;;;;;;28.75;25.25;;;;;;;;5074534;28;11566;-86
2024/03/07 05:20:38;;;;;;;;;20.00;19.50;;;;;;;;5061680;28;11593;-86
2024/03/07 05:23:05;;;;;;;;;23.75;22.00;;;;;;;;5074477;28;11653;-87
2024/03/07 05:25:34;;;;;;;;;29.50;21.00;;;;;;;;5075459;28;11722;-92
2024/03/07 05:28:02;;;;;;;;;30.25;26.25;;;;;;;;5069501;28;11565;-88
2024/03/07 05:30:33;;;;;;;;;25.00;22.00;;;;;;;;5069071;28;11596;-88
2024/03/07 05:33:01;;;;;;;;;22.00;18.50;;;;;;;;5069779;28;11593;-91
2024/03/07 05:35:29;;;;;;;;;23.00;23.00;;;;;;;;5071179;28;11605;-91
2024/03/07 05:37:57;;;;;;;;;24.00;21.50;;;;;;;;5078900;28;11564;-87
2024/03/07 05:40:27;;;;;;;;;23.75;23.75;;;;;;;;5091084;28;11630;-85
2024/03/07 05:42:56;;;;;;;;;20.50;17.00;;;;;;;;5075911;28;11695;-86
2024/03/07 05:45:24;;;;;;;;;19.75;18.00;;;;;;;;5071660;28;11641;-87
2024/03/07 05:47:51;;;;;;;;;23.00;23.00;;;;;;;;5069077;28;12395;-85
2024/03/07 05:50:19;;;;;;;;;22.50;19.75;;;;;;;;5071292;28;12304;-95
2024/03/07 05:52:48;;;;;;;;;22.50;22.50;;;;;;;;5081681;28;11589;-93
2024/03/07 05:55:18;;;;;;;;;22.25;19.75;;;;;;;;5074376;28;11527;-93
2024/03/07 05:57:46;;;;;;;;;29.50;24.25;;;;;;;;5076485;28;11637;-92
2024/03/07 06:00:26;;;;;;;;;22.00;19.75;;;;;;;;5062939;28;11661;-86
2024/03/07 06:02:54;;;;;;;;;20.75;20.75;;;;;;;;5065337;28;11663;-85
2024/03/07 06:05:22;;;;;;;;;15.25;10.50;;;;;;;;5069125;28;12296;-84
2024/03/07 06:07:49;;;;;;;;;26.50;24.00;;;;;;;;5069017;28;11499;-81
2024/03/07 06:10:17;;;;;;;;;21.50;21.50;;;;;;;;5069073;28;11532;-90
2024/03/07 06:12:45;;;;;;;;;27.25;24.50;;;;;;;;5068499;28;11546;-85
2024/03/07 06:15:14;;;;;;;;;27.25;23.50;;;;;;;;5066412;28;11548;-80
2024/03/07 06:17:43;;;;;;;;;27.75;23.00;;;;;;;;5064196;28;11577;-80
2024/03/07 06:20:22;;;;;;;;;29.75;23.00;;;;;;;;5064285;28;11620;-79
2024/03/07 06:22:50;;;;;;;;;26.00;26.00;;;;;;;;5067869;28;11559;-78
2024/03/07 06:25:20;;;;;;;;;26.00;23.75;;;;;;;;5067428;28;11554;-80
2024/03/07 06:27:49;;;;;;;;;27.25;24.25;;;;;;;;5066791;28;11541;-78
2024/03/07 06:30:18;;;;;;;;;20.25;18.50;;;;;;;;5052232;28;11569;-79
2024/03/07 06:32:46;;;;;;;;;23.50;21.50;;;;;;;;5065357;28;12324;-78
2024/03/07 06:35:13;;;;;;;;;23.75;22.00;;;;;;;;5059631;28;11641;-78
2024/03/07 06:37:40;;;;;;;;;28.25;21.75;;;;;;;;5066992;28;11537;-78
2024/03/07 06:40:10;;;;;;;;;22.25;18.50;;;;;;;;5067138;28;11541;-78
2024/03/07 06:42:37;;;;;;;;;22.50;22.50;;;;;;;;5061987;28;11533;-79
2024/03/07 06:45:05;;;;;;;;;24.00;23.25;;;;;;;;5062229;28;11550;-80
2024/03/07 06:47:34;;;;;;;;;32.50;24.50;;;;;;;;5064448;28;11577;-79
2024/03/07 06:50:04;;;;;;;;;25.50;20.75;;;;;;;;5065391;28;11618;-79
2024/03/07 06:52:31;;;;;;;;;20.00;18.00;;;;;;;;5062818;28;11726;-78
2024/03/07 06:54:58;;;;;;;;;24.50;22.50;;;;;;;;5067777;28;11603;-83
2024/03/07 06:57:27;;;;;;;;;20.75;20.75;;;;;;;;5063774;28;11597;-81
2024/03/07 06:59:55;;;;;;;;;17.50;16.50;;;;;;;;5070572;28;11717;-80
2024/03/07 07:02:22;;;;;;;;;26.75;24.50;;;;;;;;5063317;28;11560;-81
2024/03/07 07:04:52;;;;;;;;;21.25;18.75;;;;;;;;5071335;28;11615;-80
2024/03/07 07:07:20;;;;;;;;;23.00;22.75;;;;;;;;5065821;28;11598;-79
2024/03/07 07:09:51;;;;;;;;;20.00;20.00;;;;;;;;5070777;28;12326;-79
2024/03/07 07:12:21;;;;;;;;;22.50;19.50;;;;;;;;5066732;28;11715;-77
2024/03/07 07:14:48;;;;;;;;;33.25;26.25;;;;;;;;5071407;28;11627;-83
2024/03/07 07:17:15;;;;;;;;;26.00;26.00;;;;;;;;5070354;28;11619;-82
2024/03/07 07:19:42;;;;;;;;;25.25;21.00;;;;;;;;5059120;28;11623;-84
2024/03/07 07:22:13;;;;;;;;;25.50;23.50;;;;;;;;5069888;28;11592;-77
2024/03/07 07:24:46;;;;;;;;;23.50;22.75;;;;;;;;5070589;28;11590;-83
2024/03/07 07:27:16;;;;;;;;;27.75;26.25;;;;;;;;5060351;28;11621;-79
2024/03/07 07:29:50;;;;;;;;;7.75;7.75;;;;;;;;5058790;28;11589;-82
2024/03/07 07:32:17;;;;;;;;;23.75;22.50;;;;;;;;5079928;28;11561;-81
2024/03/07 07:34:44;;;;;;;;;25.00;25.00;;;;;;;;5071660;28;11605;-81
2024/03/07 07:37:16;;;;;;;;;22.75;22.75;;;;;;;;5061479;28;11721;-78
2024/03/07 07:39:48;;;;;;;;;26.00;26.00;;;;;;;;5056288;28;11650;-80
2024/03/07 07:42:15;;;;;;;;;24.25;22.25;;;;;;;;5058436;28;11627;-80
2024/03/07 07:44:46;;;;;;;;;22.00;22.00;;;;;;;;5070214;28;11604;-79
2024/03/07 07:47:20;;;;;;;;;27.00;27.00;;;;;;;;5072476;28;11651;-81
2024/03/07 07:49:49;;;;;;;;;35.75;34.25;;;;;;;;5069956;28;11546;-84
2024/03/07 07:52:18;;;;;;;;;38.25;35.00;;;;;;;;5052213;28;11572;-83
2024/03/07 07:54:45;;;;;;;;;41.50;37.00;;;;;;;;5070803;28;12398;-81
2024/03/07 07:57:16;;;;;;;;;28.75;27.00;;;;;;;;5069290;28;11582;-82
2024/03/07 07:59:46;;;;;;;;;29.25;26.75;;;;;;;;5069746;28;11689;-79
2024/03/07 08:02:14;;;;;;;;;23.75;23.25;;;;;;;;5069622;28;11907;-82
2024/03/07 08:04:43;;;;;;;;;17.25;17.25;;;;;;;;5070790;28;11545;-81
2024/03/07 08:07:10;;;;;;;;;24.00;18.00;;;;;;;;5067538;28;11545;-81
2024/03/07 08:09:38;;;;;;;;;25.75;25.75;;;;;;;;5068512;28;11596;-76
2024/03/07 08:12:07;;;;;;;;;23.00;20.75;;;;;;;;5067430;28;11567;-83
2024/03/07 08:14:34;;;;;;;;;22.25;22.25;;;;;;;;5069995;28;11524;-78
2024/03/07 08:17:01;;;;;;;;;17.50;17.25;;;;;;;;5068041;28;11499;-79
2024/03/07 08:19:31;;;;;;;;;23.00;22.25;;;;;;;;5059831;28;11475;-79
2024/03/07 08:21:59;;;;;;;;;23.50;21.75;;;;;;;;5068463;28;11520;-78
2024/03/07 08:24:26;;;;;;;;;21.75;19.50;;;;;;;;5068313;28;11498;-78
2024/03/07 08:26:56;;;;;;;;;19.50;19.50;;;;;;;;5069731;28;11488;-79
2024/03/07 08:29:24;;;;;;;;;19.25;19.25;;;;;;;;5068728;28;11499;-77
2024/03/07 08:31:51;;;;;;;;;25.00;21.25;;;;;;;;5067294;28;11525;-80
2024/03/07 08:34:19;;;;;;;;;21.00;20.50;;;;;;;;5069096;28;11548;-80
2024/03/07 08:36:49;;;;;;;;;20.75;20.00;;;;;;;;5070119;28;11500;-77
2024/03/07 08:39:18;;;;;;;;;18.25;17.50;;;;;;;;5068134;28;12395;-77
2024/03/07 08:41:46;;;;;;;;;17.75;16.75;;;;;;;;5070960;28;12224;-78
2024/03/07 08:44:15;;;;;;;;;21.00;18.50;;;;;;;;5070820;28;11534;-83
2024/03/07 08:46:47;;;;;;;;;20.25;19.00;;;;;;;;5072811;28;11474;-80
2024/03/07 08:49:18;;;;;;;;;19.00;16.50;;;;;;;;5072148;28;11565;-84
2024/03/07 08:51:48;;;;;;;;;12.25;12.00;;;;;;;;5077193;28;11514;-84
2024/03/07 08:54:20;;;;;;;;;20.00;18.25;;;;;;;;5073125;28;11415;-82
2024/03/07 08:59:43;;;;;;;;;15.75;15.50;;;;;;;;5010163;28;11344;-77
2024/03/07 09:02:16;;;;;;;;;20.50;16.75;;;;;;;;5057659;28;11096;-82
2024/03/07 09:04:43;;;;;;;;;23.25;15.25;;;;;;;;5070716;28;11232;-76
2024/03/07 09:07:14;;;;;;;;;14.25;10.25;;;;;;;;5069230;28;11051;-77
2024/03/07 09:09:43;;;;;;;;;17.25;17.25;;;;;;;;5071926;28;10855;-77
2024/03/07 09:12:11;;;;;;;;;23.00;18.75;;;;;;;;5070756;28;11599;-79
2024/03/07 09:14:41;;;;;;;;;19.75;16.25;;;;;;;;5071897;28;10872;-78
2024/03/07 09:17:09;;;;;;;;;19.25;17.00;;;;;;;;5068750;28;10711;-82
2024/03/07 09:19:36;;;;;;;;;16.50;16.50;;;;;;;;5057544;28;10633;-77
2024/03/07 09:22:04;;;;;;;;;15.00;11.00;;;;;;;;5068525;28;10711;-78
2024/03/07 09:24:33;;;;;;;;;18.00;18.00;;;;;;;;5068571;28;10676;-82
2024/03/07 09:27:00;;;;;;;;;22.00;20.25;;;;;;;;5068152;28;10714;-79
2024/03/07 09:29:28;;;;;;;;;21.25;19.75;;;;;;;;5068329;28;10681;-81
2024/03/07 09:31:58;;;;;;;;;24.75;19.75;;;;;;;;5067771;28;10553;-78
2024/03/07 09:34:26;;;;;;;;;13.00;12.25;;;;;;;;5067642;28;10786;-76
2024/03/07 09:36:54;;;;;;;;;20.00;18.25;;;;;;;;5068831;28;10342;-77
2024/03/07 09:39:24;;;;;;;;;30.75;28.75;;;;;;;;5068300;28;10515;-78
2024/03/07 09:41:54;;;;;;;;;19.50;16.50;;;;;;;;5075616;28;10743;-80
2024/03/07 09:44:24;;;;;;;;;23.75;22.00;;;;;;;;5072817;28;10179;-79
2024/03/07 09:46:53;;;;;;;;;24.00;21.00;;;;;;;;5067989;28;10286;-78
2024/03/07 09:49:22;;;;;;;;;25.50;23.00;;;;;;;;5065737;28;11154;-80
2024/03/07 09:51:54;;;;;;;;;21.25;21.25;;;;;;;;5067695;28;10121;-80
2024/03/07 09:54:23;;;;;;;;;27.25;26.75;;;;;;;;5068927;28;10023;-83
2024/03/07 09:56:51;;;;;;;;;33.00;29.50;;;;;;;;5069060;28;10022;-81
2024/03/07 09:59:21;;;;;;;;;35.50;29.50;;;;;;;;5066952;28;10132;-80
2024/03/07 10:01:51;;;;;;;;;28.75;28.75;;;;;;;;5056327;28;9960;-79
2024/03/07 10:04:30;;;;;;;;;24.00;20.50;;;;;;;;5054819;28;9954;-81
2024/03/07 10:06:57;;;;;;;;;27.75;27.25;;;;;;;;5054838;28;10028;-78
2024/03/07 10:09:25;;;;;;;;;31.25;24.25;;;;;;;;5068243;28;9891;-84
2024/03/07 10:11:59;;;;;;;;;28.25;26.50;;;;;;;;5067638;28;9796;-82
2024/03/07 10:14:26;;;;;;;;;31.75;28.25;;;;;;;;5068130;28;9726;-86
2024/03/07 10:16:56;;;;;;;;;27.25;27.25;;;;;;;;5067734;28;9915;-82
2024/03/07 10:19:25;;;;;;;;;26.75;26.75;;;;;;;;5068328;28;9637;-84
2024/03/07 10:21:57;;;;;;;;;25.67;24.00;;;;;;;;5066351;28;9605;-86
2024/03/07 10:24:27;;;;;;;;;32.00;29.00;;;;;;;;5069063;28;9398;-83
2024/03/07 10:26:58;;;;;;;;;28.50;28.50;;;;;;;;5067199;28;9479;-82
2024/03/07 10:29:27;;;;;;;;;25.00;25.00;;;;;;;;5068222;28;9384;-81
2024/03/07 10:31:54;;;;;;;;;30.33;29.00;;;;;;;;5070036;28;9382;-77
2024/03/07 10:34:26;;;;;;;;;23.00;23.00;;;;;;;;5076456;28;9247;-84
2024/03/07 10:36:57;;;;;;;;;27.00;25.33;;;;;;;;5058871;28;9329;-80
2024/03/07 10:39:26;;;;;;;;;27.67;25.33;;;;;;;;5073794;28;9325;-81
2024/03/07 10:41:57;;;;;;;;;36.67;32.33;;;;;;;;5075036;28;9212;-77
2024/03/07 10:44:28;;;;;;;;;33.67;27.00;;;;;;;;5075161;28;9413;-79
2024/03/07 10:46:59;;;;;;;;;30.33;24.67;;;;;;;;5074616;28;9183;-81
2024/03/07 10:49:28;;;;;;;;;24.00;20.00;;;;;;;;5073586;28;9251;-79
2024/03/07 10:52:03;;;;;;;;;31.67;31.00;;;;;;;;5074250;28;9081;-82
2024/03/07 10:54:38;;;;;;;;;26.67;26.67;;;;;;;;5067448;28;9027;-78
2024/03/07 10:57:12;;;;;;;;;28.25;26.00;;;;;;;;5063036;28;9739;-78
2024/03/07 10:59:51;;;;;;;;;28.00;28.00;;;;;;;;5058379;28;8969;-78
2024/03/07 11:02:28;;;;;;;;;30.00;27.25;;;;;;;;5066345;28;8826;-77
2024/03/07 11:04:56;;;;;;;;;30.75;29.25;;;;;;;;5073407;28;8860;-79
2024/03/07 11:07:30;;;;;;;;;27.75;25.50;;;;;;;;5070977;28;8844;-78
2024/03/07 11:09:58;;;;;;;;;27.50;26.50;;;;;;;;5068066;28;8864;-76
2024/03/07 11:12:28;;;;;;;;;30.50;27.75;;;;;;;;5067863;28;8856;-78
2024/03/07 11:14:57;;;;;;;;;29.75;29.50;;;;;;;;5068263;28;8986;-78
2024/03/07 11:17:25;;;;;;;;;28.75;27.50;;;;;;;;5073662;28;8872;-77
2024/03/07 11:19:52;;;;;;;;;26.50;25.00;;;;;;;;5056869;28;8854;-77
2024/03/07 11:22:35;;;;;;;;;29.75;29.75;;;;;;;;5070735;28;8856;-77
2024/03/07 11:25:06;;;;;;;;;31.50;29.00;;;;;;;;5069978;28;8937;-76
2024/03/07 11:27:34;;;;;;;;;30.75;30.25;;;;;;;;5069109;28;9655;-78
2024/03/07 11:30:07;;;;;;;;;32.50;30.50;;;;;;;;5070512;28;8856;-76
2024/03/07 11:32:41;;;;;;;;;31.50;28.50;;;;;;;;5071681;28;8793;-87
2024/03/07 11:35:15;;;;;;;;;34.00;30.25;;;;;;;;5069979;28;8852;-77
2024/03/07 11:37:47;;;;;;;;;27.00;25.00;;;;;;;;5072518;28;8841;-81
2024/03/07 11:40:44;;;;;;;;;27.00;27.00;;;;;;;;5072513;28;9688;-83
2024/03/07 11:43:15;;;;;;;;;29.00;27.25;;;;;;;;5069598;28;8921;-78
2024/03/07 11:45:52;;;;;;;;;29.50;26.25;;;;;;;;5071568;28;8832;-81
2024/03/07 11:48:21;;;;;;;;;22.00;19.00;;;;;;;;5070551;28;8839;-76
2024/03/07 11:50:48;;;;;;;;;25.00;24.75;;;;;;;;5070311;28;8836;-76
2024/03/07 11:53:17;;;;;;;;;27.25;25.75;;;;;;;;5070565;28;9645;-81
2024/03/07 11:55:45;;;;;;;;;30.50;27.75;;;;;;;;5067076;28;8878;-78
2024/03/07 11:58:15;;;;;;;;;30.50;28.25;;;;;;;;5070786;28;8855;-79
2024/03/07 12:00:45;;;;;;;;;29.50;27.25;;;;;;;;5070246;28;8781;-74
2024/03/07 12:03:14;;;;;;;;;23.75;23.75;;;;;;;;5070589;28;8860;-76
2024/03/07 12:05:44;;;;;;;;;31.25;29.25;;;;;;;;5070601;28;9607;-80
2024/03/07 12:08:12;;;;;;;;;26.25;24.25;;;;;;;;5064032;28;8853;-83
2024/03/07 12:10:43;;;;;;;;;25.25;23.50;;;;;;;;5066976;28;9737;-81
2024/03/07 12:13:12;;;;;;;;;25.25;23.00;;;;;;;;5071695;28;8848;-77
2024/03/07 12:15:40;;;;;;;;;1.50;0.00;;;;;;;;5073758;28;8983;-79
2024/03/07 12:18:14;;;;;;;;;26.50;26.50;;;;;;;;5069534;28;8865;-76
2024/03/07 12:20:46;;;;;;;;;30.75;29.25;;;;;;;;5059692;28;8864;-78
2024/03/07 12:23:16;;;;;;;;;28.50;26.00;;;;;;;;5066448;28;8836;-77
2024/03/07 12:25:48;;;;;;;;;22.00;22.00;;;;;;;;5071535;28;8944;-75
2024/03/07 12:28:25;;;;;;;;;23.50;23.50;;;;;;;;5066636;28;8869;-74
2024/03/07 12:30:53;;;;;;;;;30.00;28.25;;;;;;;;5067805;28;8783;-77
2024/03/07 12:33:23;;;;;;;;;26.50;23.50;;;;;;;;5071703;28;8857;-77
2024/03/07 12:35:53;;;;;;;;;26.75;23.75;;;;;;;;5064249;28;8869;-81
2024/03/07 12:38:23;;;;;;;;;23.00;21.25;;;;;;;;5072284;28;8955;-80
2024/03/07 12:41:05;;;;;;;;;24.75;24.00;;;;;;;;5066715;28;8840;-76
2024/03/07 12:43:33;;;;;;;;;27.00;26.00;;;;;;;;5071824;28;8840;-77
2024/03/07 12:46:00;;;;;;;;;26.25;24.00;;;;;;;;5065840;28;8852;-75
2024/03/07 12:48:30;;;;;;;;;23.00;23.00;;;;;;;;5070007;28;8991;-74
2024/03/07 12:50:57;;;;;;;;;23.67;23.67;;;;;;;;5067055;28;8864;-75
2024/03/07 12:53:25;;;;;;;;;22.00;22.00;;;;;;;;5070066;28;8860;-76
2024/03/07 12:55:56;;;;;;;;;22.50;20.00;;;;;;;;5069357;28;8840;-76
2024/03/07 12:58:25;;;;;;;;;22.50;21.00;;;;;;;;5068815;28;8990;-76
2024/03/07 13:00:52;;;;;;;;;20.00;18.50;;;;;;;;5067856;28;8804;-76
2024/03/07 13:03:20;;;;;;;;;23.00;22.00;;;;;;;;5068375;28;8872;-76
2024/03/07 13:05:48;;;;;;;;;20.75;20.25;;;;;;;;5068338;28;8874;-76
2024/03/07 13:08:15;;;;;;;;;16.25;15.50;;;;;;;;5068313;28;8844;-75
2024/03/07 13:10:46;;;;;;;;;16.25;16.25;;;;;;;;5068623;28;8853;-76
2024/03/07 13:13:17;;;;;;;;;22.50;22.50;;;;;;;;5069251;28;8862;-76
2024/03/07 13:15:47;;;;;;;;;23.00;23.00;;;;;;;;5068831;28;8847;-77
2024/03/07 13:18:15;;;;;;;;;22.00;22.00;;;;;;;;5067559;28;8929;-77
2024/03/07 13:20:45;;;;;;;;;23.00;19.25;;;;;;;;5056098;28;8852;-78
2024/03/07 13:23:13;;;;;;;;;16.00;14.50;;;;;;;;5068258;28;8879;-76
2024/03/07 13:25:41;;;;;;;;;21.75;18.00;;;;;;;;5067056;28;8844;-77
2024/03/07 13:28:13;;;;;;;;;21.00;21.00;;;;;;;;5067709;28;8864;-76
2024/03/07 13:30:48;;;;;;;;;18.00;18.00;;;;;;;;5068186;28;8783;-78
2024/03/07 13:33:15;;;;;;;;;20.75;18.25;;;;;;;;5067890;28;8875;-77
2024/03/07 13:35:42;;;;;;;;;26.25;23.00;;;;;;;;5068403;28;9738;-78
2024/03/07 13:38:10;;;;;;;;;28.50;23.75;;;;;;;;5066138;28;8859;-77
2024/03/07 13:40:38;;;;;;;;;20.00;18.25;;;;;;;;5067879;28;8884;-77
2024/03/07 13:43:06;;;;;;;;;19.75;18.75;;;;;;;;5067536;28;8845;-77
2024/03/07 13:45:38;;;;;;;;;19.50;16.00;;;;;;;;5067552;28;8953;-76
2024/03/07 13:48:10;;;;;;;;;23.25;23.25;;;;;;;;5067001;28;8983;-77
2024/03/07 13:50:41;;;;;;;;;20.50;20.50;;;;;;;;5065720;28;8985;-77
2024/03/07 13:53:13;;;;;;;;;21.75;20.50;;;;;;;;5057259;28;9689;-77
2024/03/07 13:55:55;;;;;;;;;21.50;20.00;;;;;;;;5067816;28;8829;-78
2024/03/07 13:58:36;;;;;;;;;22.50;21.00;;;;;;;;5068629;28;8869;-82
2024/03/07 14:01:20;;;;;;;;;22.25;21.75;;;;;;;;5060189;28;8835;-81
2024/03/07 14:04:23;;;;;;;;;27.25;26.75;;;;;;;;5057332;28;8867;-79
2024/03/07 14:07:05;;;;;;;;;18.25;16.50;;;;;;;;5055437;28;8944;-81
2024/03/07 14:09:59;;;;;;;;;20.50;15.75;;;;;;;;5069234;28;8866;-82
2024/03/07 14:12:40;;;;;;;;;16.25;16.25;;;;;;;;5065063;28;8852;-82
2024/03/07 14:15:46;;;;;;;;;13.25;12.75;;;;;;;;5068947;28;8843;-83
2024/03/07 14:19:12;;;;;;;;;21.00;19.75;;;;;;;;5031534;28;8843;-80
2024/03/07 14:22:07;;;;;;;;;16.75;16.75;;;;;;;;5059219;28;8856;-82
2024/03/07 14:25:18;;;;;;;;;21.25;21.00;;;;;;;;5051297;28;8876;-81
2024/03/07 14:28:07;;;;;;;;;23.50;22.00;;;;;;;;5066623;28;8837;-82
2024/03/07 14:30:45;;;;;;;;;19.25;19.25;;;;;;;;5068481;28;8784;-81
2024/03/07 14:33:16;;;;;;;;;26.25;21.75;;;;;;;;5086790;28;8889;-81
2024/03/07 14:36:00;;;;;;;;;18.00;18.00;;;;;;;;5070763;28;8839;-77
2024/03/07 14:38:48;;;;;;;;;23.25;21.00;;;;;;;;5067165;28;8975;-76
2024/03/07 14:41:16;;;;;;;;;19.50;19.50;;;;;;;;5068434;28;8917;-78
2024/03/07 14:43:45;;;;;;;;;23.00;21.50;;;;;;;;5067957;28;9714;-77